createdAt,value
2019-05-02T00:01:44.437Z,11.17
2019-05-02T00:04:19.930Z,11.23
2019-05-02T00:06:48.265Z,10.43
2019-05-02T00:09:18.528Z,11.77
2019-05-02T00:11:58.214Z,9.53
2019-05-02T00:14:21.106Z,10.93
2019-05-02T00:16:50.958Z,10.30
2019-05-02T00:19:22.024Z,8.77
2019-05-02T00:21:51.908Z,11.40
2019-05-02T00:24:21.762Z,9.60
2019-05-02T00:26:55.927Z,11.13
2019-05-02T00:29:23.783Z,10.33
2019-05-02T00:31:54.752Z,12.00
2019-05-02T00:34:24.584Z,9.97
2019-05-02T00:36:54.367Z,9.23
2019-05-02T00:39:24.193Z,11.30
2019-05-02T00:41:53.977Z,9.90
2019-05-02T00:44:23.865Z,10.80
2019-05-02T00:46:55.294Z,11.27
2019-05-02T00:49:25.206Z,10.90
2019-05-02T00:51:56.565Z,11.67
2019-05-02T00:54:27.028Z,11.00
2019-05-02T00:56:56.849Z,11.03
2019-05-02T00:59:26.648Z,10.13
2019-05-02T01:02:00.141Z,10.23
2019-05-02T01:04:34.721Z,11.17
2019-05-02T01:07:04.798Z,10.80
2019-05-02T01:09:34.687Z,11.93
2019-05-02T01:12:08.421Z,10.07
2019-05-02T01:14:36.075Z,12.07
2019-05-02T01:17:05.881Z,11.37
2019-05-02T01:19:35.666Z,10.93
2019-05-02T01:22:05.659Z,11.40
2019-05-02T01:24:39.801Z,10.60
2019-05-02T01:27:11.500Z,11.03
2019-05-02T01:29:46.766Z,12.80
2019-05-02T01:32:25.241Z,11.23
2019-05-02T01:34:57.483Z,11.17
2019-05-02T01:37:28.923Z,10.20
2019-05-02T01:39:58.849Z,10.83
2019-05-02T01:42:39.344Z,11.00
2019-05-02T01:45:00.271Z,10.07
2019-05-02T01:47:34.255Z,9.63
2019-05-02T01:50:01.846Z,9.93
2019-05-02T01:52:32.357Z,11.17
2019-05-02T01:55:02.213Z,13.20
2019-05-02T01:57:34.142Z,11.23
2019-05-02T02:00:09.465Z,11.47
2019-05-02T02:02:37.743Z,10.90
2019-05-02T02:05:08.905Z,10.77
2019-05-02T02:07:38.702Z,11.83
2019-05-02T02:10:08.614Z,12.50
2019-05-02T02:12:41.233Z,10.70
2019-05-02T02:15:10.949Z,10.67
2019-05-02T02:17:41.145Z,12.10
2019-05-02T02:20:15.695Z,10.93
2019-05-02T02:22:49.821Z,12.80
2019-05-02T02:25:40.443Z,10.40
2019-05-02T02:28:10.467Z,12.03
2019-05-02T02:30:40.251Z,10.47
2019-05-02T02:33:10.142Z,11.37
2019-05-02T02:35:49.562Z,11.67
2019-05-02T02:38:11.769Z,11.70
2019-05-02T02:40:41.643Z,12.07
2019-05-02T02:43:32.242Z,11.97
2019-05-02T02:45:57.602Z,11.47
2019-05-02T02:48:33.928Z,11.23
2019-05-02T02:50:59.558Z,10.50
2019-05-02T02:53:32.060Z,9.63
2019-05-02T02:56:06.997Z,13.40
2019-05-02T02:58:45.628Z,10.83
2019-05-02T03:01:08.601Z,10.57
2019-05-02T03:03:38.373Z,12.77
2019-05-02T03:06:08.661Z,10.83
2019-05-02T03:08:46.078Z,11.30
2019-05-02T03:11:22.385Z,12.20
2019-05-02T03:14:00.085Z,10.77
2019-05-02T03:16:27.069Z,9.97
2019-05-02T03:18:56.879Z,10.27
2019-05-02T03:21:26.661Z,10.33
2019-05-02T03:24:03.142Z,9.47
2019-05-02T03:26:27.996Z,11.30
2019-05-02T03:29:00.508Z,11.33
2019-05-02T03:31:31.363Z,10.20
2019-05-02T03:34:01.761Z,9.83
2019-05-02T03:36:35.987Z,11.03
2019-05-02T03:39:13.970Z,11.33
2019-05-02T03:41:35.824Z,11.03
2019-05-02T03:44:11.089Z,11.07
2019-05-02T03:46:38.177Z,10.83
2019-05-02T03:49:09.738Z,12.53
2019-05-02T03:51:39.858Z,11.20
2019-05-02T03:54:10.427Z,11.20
2019-05-02T03:56:44.702Z,10.97
2019-05-02T03:59:11.997Z,10.60
2019-05-02T04:01:43.148Z,11.23
2019-05-02T04:04:14.278Z,10.13
2019-05-02T04:06:44.980Z,10.40
2019-05-02T04:09:38.888Z,10.40
2019-05-02T04:12:11.604Z,12.17
2019-05-02T04:14:38.932Z,9.57
2019-05-02T04:17:10.564Z,11.13
2019-05-02T04:19:41.030Z,13.27
2019-05-02T04:22:12.022Z,11.40
2019-05-02T04:24:47.779Z,12.50
2019-05-02T04:27:14.438Z,13.53
2019-05-02T04:29:44.285Z,13.30
2019-05-02T04:32:14.882Z,13.03
2019-05-02T04:34:48.899Z,14.50
2019-05-02T04:37:16.518Z,13.07
2019-05-02T04:39:49.120Z,11.50
2019-05-02T04:42:22.974Z,12.23
2019-05-02T04:45:11.663Z,12.47
2019-05-02T04:47:22.350Z,11.67
2019-05-02T04:49:52.442Z,12.33
2019-05-02T04:52:22.221Z,12.37
2019-05-02T04:54:52.132Z,12.90
2019-05-02T04:57:29.250Z,10.70
2019-05-02T05:00:05.060Z,13.10
2019-05-02T05:02:34.110Z,10.67
2019-05-02T05:04:58.208Z,12.60
2019-05-02T05:07:31.072Z,11.57
2019-05-02T05:10:03.172Z,11.83
2019-05-02T05:12:32.531Z,13.07
2019-05-02T05:15:04.841Z,12.30
2019-05-02T05:17:34.753Z,12.63
2019-05-02T05:20:13.700Z,10.40
2019-05-02T05:22:44.251Z,11.60
2019-05-02T05:25:17.781Z,12.93
2019-05-02T05:27:47.907Z,13.00
2019-05-02T05:30:18.641Z,11.90
2019-05-02T05:32:48.674Z,11.37
2019-05-02T05:35:18.580Z,12.43
2019-05-02T05:37:52.922Z,12.50
2019-05-02T05:40:22.662Z,11.67
2019-05-02T05:42:51.739Z,12.50
2019-05-02T05:45:21.602Z,12.93
2019-05-02T05:47:52.403Z,13.53
2019-05-02T05:50:22.983Z,12.53
2019-05-02T05:52:52.823Z,11.70
2019-05-02T05:55:24.458Z,13.47
2019-05-02T05:58:01.802Z,13.73
2019-05-02T06:00:27.910Z,13.80
2019-05-02T06:03:10.305Z,15.57
2019-05-02T06:05:33.313Z,13.67
2019-05-02T06:08:00.882Z,12.83
2019-05-02T06:10:31.421Z,11.83
2019-05-02T06:13:05.151Z,12.27
2019-05-02T06:15:33.989Z,12.17
2019-05-02T06:18:06.068Z,15.33
2019-05-02T06:20:35.975Z,14.07
2019-05-02T06:23:05.862Z,13.77
2019-05-02T06:25:36.704Z,13.67
2019-05-02T06:28:06.997Z,13.13
2019-05-02T06:30:36.906Z,13.50
2019-05-02T06:33:06.703Z,13.73
2019-05-02T06:35:36.538Z,14.03
2019-05-02T06:38:06.373Z,13.77
2019-05-02T06:40:39.228Z,12.63
2019-05-02T06:43:09.666Z,13.97
2019-05-02T06:45:39.772Z,13.33
2019-05-02T06:48:17.265Z,13.57
2019-05-02T06:50:43.422Z,13.27
2019-05-02T06:53:13.338Z,12.10
2019-05-02T06:55:43.161Z,13.67
2019-05-02T06:58:13.289Z,13.63
2019-05-02T07:00:56.839Z,13.33
2019-05-02T07:03:15.046Z,13.73
2019-05-02T07:05:45.012Z,11.37
2019-05-02T07:08:14.947Z,13.43
2019-05-02T07:10:45.298Z,15.20
2019-05-02T07:13:15.612Z,13.30
2019-05-02T07:15:51.209Z,15.97
2019-05-02T07:18:22.718Z,18.60
2019-05-02T07:20:53.092Z,14.77
2019-05-02T07:23:22.987Z,13.57
2019-05-02T07:25:53.763Z,13.57
2019-05-02T07:28:24.131Z,15.87
2019-05-02T07:30:54.750Z,14.40
2019-05-02T07:33:24.857Z,12.60
2019-05-02T07:35:55.285Z,12.87
2019-05-02T07:38:27.559Z,12.90
2019-05-02T07:40:59.067Z,13.43
2019-05-02T07:43:29.040Z,14.23
2019-05-02T07:45:59.960Z,13.63
2019-05-02T07:48:29.881Z,13.30
2019-05-02T07:50:59.803Z,14.80
2019-05-02T07:53:29.609Z,14.83
2019-05-02T07:55:59.533Z,15.33
2019-05-02T07:58:29.861Z,14.03
2019-05-02T08:00:59.778Z,16.07
2019-05-02T08:03:33.486Z,15.57
2019-05-02T08:06:01.323Z,15.95
2019-05-02T08:08:31.844Z,16.10
2019-05-02T08:11:03.155Z,15.95
2019-05-02T08:13:33.190Z,14.95
2019-05-02T08:16:03.022Z,15.88
2019-05-02T08:18:32.969Z,16.75
2019-05-02T08:21:03.693Z,15.08
2019-05-02T08:23:33.539Z,13.50
2019-05-02T08:26:03.378Z,15.15
2019-05-02T08:28:34.892Z,17.15
2019-05-02T08:31:04.717Z,15.00
2019-05-02T08:33:35.915Z,14.70
2019-05-02T08:36:06.065Z,14.38
2019-05-02T08:38:35.921Z,14.83
2019-05-02T08:41:05.901Z,14.55
2019-05-02T08:43:40.079Z,15.58
2019-05-02T08:46:09.371Z,16.23
2019-05-02T08:48:41.873Z,13.50
2019-05-02T08:51:10.401Z,13.62
2019-05-02T08:53:40.297Z,13.28
2019-05-02T08:56:10.133Z,12.75
2019-05-02T08:58:44.898Z,13.25
2019-05-02T09:01:13.672Z,12.73
2019-05-02T09:03:57.113Z,11.73
2019-05-02T09:06:17.239Z,13.43
2019-05-02T09:08:51.376Z,13.78
2019-05-02T09:11:18.382Z,11.25
2019-05-02T09:13:48.341Z,15.23
2019-05-02T09:16:21.588Z,12.58
2019-05-02T09:18:51.874Z,13.80
2019-05-02T09:21:22.006Z,12.37
2019-05-02T09:23:52.681Z,12.58
2019-05-02T09:26:35.021Z,14.98
2019-05-02T09:28:56.287Z,11.97
2019-05-02T09:31:25.850Z,15.00
2019-05-02T09:33:55.830Z,12.82
2019-05-02T09:36:25.728Z,11.97
2019-05-02T09:38:57.559Z,11.57
2019-05-02T09:41:34.504Z,11.83
2019-05-02T09:43:59.585Z,12.73
2019-05-02T09:46:29.526Z,12.83
2019-05-02T09:49:04.301Z,12.53
2019-05-02T09:51:32.515Z,12.78
2019-05-02T09:54:06.241Z,11.37
2019-05-02T09:56:33.926Z,12.47
2019-05-02T09:59:23.270Z,11.60
2019-05-02T10:01:38.801Z,11.93
2019-05-02T10:04:08.754Z,11.97
2019-05-02T10:06:38.594Z,11.77
2019-05-02T10:09:09.326Z,11.77
2019-05-02T10:11:39.197Z,11.00
2019-05-02T10:14:11.796Z,11.13
2019-05-02T10:16:42.653Z,9.73
2019-05-02T10:19:13.458Z,13.37
2019-05-02T10:21:47.039Z,11.47
2019-05-02T10:24:14.985Z,9.83
2019-05-02T10:26:44.773Z,10.90
2019-05-02T10:29:14.766Z,11.00
2019-05-02T10:31:44.847Z,10.20
2019-05-02T10:34:17.625Z,8.57
2019-05-02T10:36:46.225Z,11.17
2019-05-02T10:39:16.197Z,9.77
2019-05-02T10:41:46.011Z,8.73
2019-05-02T10:44:15.849Z,9.53
2019-05-02T10:46:52.300Z,9.53
2019-05-02T10:49:23.905Z,10.33
2019-05-02T10:51:54.993Z,9.33
2019-05-02T10:54:28.029Z,9.60
2019-05-02T10:56:56.443Z,10.57
2019-05-02T10:59:26.348Z,9.67
2019-05-02T11:02:03.655Z,11.03
2019-05-02T11:04:35.214Z,9.57
2019-05-02T11:07:05.346Z,8.90
2019-05-02T11:09:35.837Z,10.13
2019-05-02T11:12:08.150Z,10.03
2019-05-02T11:14:42.610Z,10.90
2019-05-02T11:17:17.976Z,10.13
2019-05-02T11:19:49.706Z,10.03
2019-05-02T11:22:20.494Z,10.90
2019-05-02T11:24:52.208Z,10.53
2019-05-02T11:27:22.220Z,11.30
2019-05-02T11:29:52.582Z,11.27
2019-05-02T11:32:22.626Z,9.80
2019-05-02T11:34:52.576Z,10.37
2019-05-02T11:37:22.678Z,10.20
2019-05-02T11:39:58.586Z,9.57
2019-05-02T11:42:27.251Z,11.80
2019-05-02T11:44:55.833Z,9.87
2019-05-02T11:47:26.667Z,9.43
2019-05-02T11:49:56.726Z,9.17
2019-05-02T11:52:27.371Z,9.70
2019-05-02T11:54:58.066Z,9.10
2019-05-02T11:57:30.277Z,9.30
2019-05-02T12:00:04.112Z,9.83
2019-05-02T12:02:36.886Z,9.07
2019-05-02T12:05:12.768Z,12.10
2019-05-02T12:07:42.783Z,9.50
2019-05-02T12:10:12.675Z,8.43
2019-05-02T12:12:43.554Z,9.73
2019-05-02T12:15:13.545Z,9.40
2019-05-02T12:17:43.503Z,8.77
2019-05-02T12:20:14.408Z,7.53
2019-05-02T12:22:44.200Z,8.63
2019-05-02T12:25:14.151Z,8.60
2019-05-02T12:27:44.752Z,7.00
2019-05-02T12:30:16.265Z,10.43
2019-05-02T12:32:46.157Z,8.70
2019-05-02T12:35:16.062Z,8.97
2019-05-02T12:37:46.995Z,9.27
2019-05-02T12:40:18.963Z,10.13
2019-05-02T12:42:48.784Z,8.87
2019-05-02T12:45:18.702Z,9.17
2019-05-02T12:47:48.577Z,9.30
2019-05-02T12:50:19.378Z,9.20
2019-05-02T12:52:52.044Z,9.00
2019-05-02T12:55:22.176Z,9.77
2019-05-02T12:57:52.473Z,10.33
2019-05-02T13:00:22.703Z,10.90
2019-05-02T13:03:13.868Z,10.10
2019-05-02T13:05:43.770Z,11.73
2019-05-02T13:08:13.673Z,12.13
2019-05-02T13:11:02.324Z,12.37
2019-05-02T13:13:32.655Z,12.00
2019-05-02T13:16:03.874Z,12.87
2019-05-02T13:18:37.167Z,14.70
2019-05-02T13:21:08.183Z,12.37
2019-05-02T13:23:56.734Z,12.27
2019-05-02T13:26:27.367Z,14.47
2019-05-02T13:28:57.236Z,11.23
2019-05-02T13:31:34.222Z,13.47
2019-05-02T13:34:11.699Z,12.10
2019-05-02T13:36:44.526Z,11.27
2019-05-02T13:39:22.025Z,10.73
2019-05-02T13:41:52.259Z,10.70
2019-05-02T13:44:23.882Z,12.63
2019-05-02T13:46:54.511Z,11.47
2019-05-02T13:49:24.416Z,11.97
2019-05-02T13:51:54.382Z,12.40
2019-05-02T13:54:24.224Z,13.93
2019-05-02T13:56:54.114Z,11.87
2019-05-02T13:59:24.897Z,13.13
2019-05-02T14:01:55.214Z,12.60
2019-05-02T14:04:25.091Z,11.30
2019-05-02T14:06:55.598Z,12.13
2019-05-02T14:09:33.558Z,12.33
2019-05-02T14:12:08.761Z,11.53
2019-05-02T14:14:39.304Z,12.90
2019-05-02T14:17:09.113Z,11.53
2019-05-02T14:19:39.034Z,13.97
2019-05-02T14:22:09.011Z,13.40
2019-05-02T14:24:38.822Z,13.03
2019-05-02T14:27:12.793Z,13.27
2019-05-02T14:29:42.291Z,12.33
2019-05-02T14:32:21.381Z,12.50
2019-05-02T14:34:46.846Z,12.27
2019-05-02T14:37:16.787Z,13.80
2019-05-02T14:39:48.339Z,13.57
2019-05-02T14:42:22.165Z,12.50
2019-05-02T14:45:05.732Z,14.47
2019-05-02T14:47:22.419Z,13.90
2019-05-02T14:49:56.707Z,14.43
2019-05-02T14:52:24.685Z,11.87
2019-05-02T14:54:55.701Z,12.83
2019-05-02T14:57:27.239Z,14.13
2019-05-02T14:59:59.521Z,12.47
2019-05-02T15:02:47.261Z,13.07
2019-05-02T15:05:19.194Z,11.70
2019-05-02T15:07:46.398Z,10.87
2019-05-02T15:10:16.601Z,10.23
2019-05-02T15:12:46.461Z,10.43
2019-05-02T15:15:16.613Z,11.10
2019-05-02T15:17:46.502Z,10.60
2019-05-02T15:20:16.493Z,10.03
2019-05-02T15:22:47.255Z,10.87
2019-05-02T15:25:17.943Z,10.80
2019-05-02T15:27:49.899Z,11.00
2019-05-02T15:30:20.029Z,9.67
2019-05-02T15:32:54.128Z,11.33
2019-05-02T15:35:28.338Z,9.37
2019-05-02T15:38:02.769Z,10.83
2019-05-02T15:43:02.842Z,9.63
2019-05-02T15:45:36.742Z,10.07
2019-05-02T15:48:05.563Z,9.87
2019-05-02T15:50:35.364Z,9.87
2019-05-02T15:53:10.137Z,8.93
2019-05-02T15:55:40.129Z,10.70
2019-05-02T15:58:16.945Z,8.37
2019-05-02T16:01:00.744Z,8.37
2019-05-02T16:03:29.571Z,8.93
2019-05-02T16:05:59.391Z,9.13
2019-05-02T16:08:32.552Z,8.00
2019-05-02T16:11:02.974Z,9.20
2019-05-02T16:13:32.879Z,8.57
2019-05-02T16:16:05.392Z,7.90
2019-05-02T16:18:36.133Z,8.20
2019-05-02T16:21:08.013Z,9.53
2019-05-02T16:23:37.960Z,8.60
2019-05-02T16:26:08.923Z,7.70
2019-05-02T16:28:44.214Z,7.83
2019-05-02T16:31:12.580Z,7.43
2019-05-02T16:33:42.476Z,7.53
2019-05-02T16:36:12.622Z,7.93
2019-05-02T16:38:42.658Z,6.87
2019-05-02T16:41:13.193Z,9.40
2019-05-02T16:43:43.078Z,6.53
2019-05-02T16:46:14.287Z,6.97
2019-05-02T16:48:44.810Z,9.30
2019-05-02T16:51:29.877Z,9.20
2019-05-02T16:53:46.273Z,8.03
2019-05-02T16:56:16.118Z,8.43
2019-05-02T16:58:47.207Z,7.70
2019-05-02T17:01:24.549Z,8.80
2019-05-02T17:03:49.893Z,8.90
2019-05-02T17:06:22.363Z,8.27
2019-05-02T17:09:11.937Z,8.27
2019-05-02T17:11:43.501Z,8.13
2019-05-02T17:14:13.586Z,7.67
2019-05-02T17:16:47.075Z,8.10
2019-05-02T17:19:15.761Z,8.10
2019-05-02T17:21:55.383Z,9.13
2019-05-02T17:24:21.627Z,8.53
2019-05-02T17:26:48.697Z,9.47
2019-05-02T17:29:21.330Z,9.53
2019-05-02T17:31:55.378Z,8.17
2019-05-02T17:34:23.031Z,7.77
2019-05-02T17:36:53.916Z,8.07
2019-05-02T17:39:23.949Z,8.73
2019-05-02T17:41:53.806Z,10.00
2019-05-02T17:44:24.712Z,8.60
2019-05-02T17:46:58.229Z,8.17
2019-05-02T17:49:34.904Z,6.50
2019-05-02T17:52:19.843Z,7.20
2019-05-02T17:54:47.974Z,8.43
2019-05-02T17:57:17.894Z,7.40
2019-05-02T17:59:47.692Z,7.93
2019-05-02T18:02:17.532Z,7.77
2019-05-02T18:04:52.087Z,6.37
2019-05-02T18:07:19.136Z,7.80
2019-05-02T18:09:48.957Z,7.20
2019-05-02T18:12:18.845Z,6.57
2019-05-02T18:14:51.424Z,7.17
2019-05-02T18:17:21.909Z,6.73
2019-05-02T18:19:52.142Z,5.97
2019-05-02T18:22:24.209Z,6.83
2019-05-02T18:24:53.457Z,6.17
2019-05-02T18:27:23.230Z,6.70
2019-05-02T18:29:53.057Z,6.70
2019-05-02T18:32:26.071Z,6.17
2019-05-02T18:34:56.784Z,6.57
2019-05-02T18:37:25.847Z,7.73
2019-05-02T18:39:56.322Z,7.63
2019-05-02T18:42:26.229Z,5.90
2019-05-02T18:44:56.472Z,7.50
2019-05-02T18:47:26.257Z,6.50
2019-05-02T18:50:01.811Z,5.87
2019-05-02T18:52:36.440Z,6.87
2019-05-02T18:54:59.194Z,6.93
2019-05-02T18:57:29.651Z,6.80
2019-05-02T18:59:59.497Z,6.90
2019-05-02T19:02:32.775Z,7.03
2019-05-02T19:05:01.968Z,7.63
2019-05-02T19:07:35.333Z,6.77
2019-05-02T19:10:07.365Z,7.67
2019-05-02T19:12:37.345Z,8.27
2019-05-02T19:15:07.782Z,7.70
2019-05-02T19:17:39.232Z,5.73
2019-05-02T19:20:24.599Z,7.03
2019-05-02T19:22:56.976Z,6.90
2019-05-02T19:25:27.210Z,6.40
2019-05-02T19:28:04.402Z,5.50
2019-05-02T19:30:38.557Z,5.63
2019-05-02T19:33:09.424Z,7.33
2019-05-02T19:35:43.163Z,6.10
2019-05-02T19:38:11.898Z,6.20
2019-05-02T19:40:42.736Z,8.13
2019-05-02T19:43:14.767Z,7.13
2019-05-02T19:45:45.693Z,7.37
2019-05-02T19:48:16.798Z,7.73
2019-05-02T19:50:46.913Z,7.60
2019-05-02T19:53:18.353Z,7.67
2019-05-02T19:55:48.341Z,6.67
2019-05-02T19:58:18.180Z,9.00
2019-05-02T20:00:48.195Z,6.63
2019-05-02T20:03:21.742Z,7.67
2019-05-02T20:05:51.883Z,8.77
2019-05-02T20:08:24.462Z,7.57
2019-05-02T20:10:56.839Z,6.73
2019-05-02T20:13:28.015Z,8.07
2019-05-02T20:16:11.875Z,8.43
2019-05-02T20:18:43.845Z,9.13
2019-05-02T20:21:27.227Z,8.30
2019-05-02T20:23:52.536Z,7.53
2019-05-02T20:26:22.381Z,8.57
2019-05-02T20:28:52.756Z,9.30
2019-05-02T20:31:22.700Z,8.20
2019-05-02T20:33:52.530Z,9.40
2019-05-02T20:36:22.803Z,8.50
2019-05-02T20:38:52.851Z,8.90
2019-05-02T20:41:22.678Z,8.43
2019-05-02T20:43:52.578Z,7.10
2019-05-02T20:46:22.466Z,8.23
2019-05-02T20:48:52.665Z,7.63
2019-05-02T20:51:22.869Z,7.03
2019-05-02T20:53:52.829Z,7.80
2019-05-02T20:56:23.124Z,7.70
2019-05-02T20:58:53.109Z,7.20
2019-05-02T21:01:23.911Z,7.53
2019-05-02T21:03:53.873Z,8.60
2019-05-02T21:06:40.531Z,7.27
2019-05-02T21:09:06.739Z,8.03
2019-05-02T21:11:36.866Z,7.40
2019-05-02T21:14:06.823Z,7.10
2019-05-02T21:16:36.593Z,8.33
2019-05-02T21:19:06.418Z,8.27
2019-05-02T21:21:36.779Z,6.43
2019-05-02T21:24:06.545Z,7.53
2019-05-02T21:26:36.319Z,7.17
2019-05-02T21:29:06.394Z,7.10
2019-05-02T21:31:36.166Z,7.27
2019-05-02T21:34:07.325Z,7.97
2019-05-02T21:36:37.413Z,7.87
2019-05-02T21:39:11.994Z,9.07
2019-05-02T21:41:42.380Z,8.80
2019-05-02T21:44:13.190Z,8.33
2019-05-02T21:46:43.258Z,7.33
2019-05-02T21:49:15.549Z,8.47
2019-05-02T21:51:47.037Z,8.17
2019-05-02T21:54:22.646Z,8.83
2019-05-02T21:56:54.134Z,7.87
2019-05-02T21:59:23.967Z,8.87
2019-05-02T22:01:55.578Z,6.87
2019-05-02T22:04:25.352Z,7.70
2019-05-02T22:06:55.127Z,7.80
2019-05-02T22:09:25.798Z,8.57
2019-05-02T22:11:56.649Z,7.73
2019-05-02T22:14:26.446Z,8.60
2019-05-02T22:16:56.212Z,8.43
2019-05-02T22:19:26.051Z,7.77
2019-05-02T22:21:56.265Z,8.90
2019-05-02T22:24:26.178Z,7.67
2019-05-02T22:26:56.001Z,7.93
2019-05-02T22:29:25.819Z,8.80
2019-05-02T22:31:55.642Z,8.27
2019-05-02T22:34:25.438Z,8.97
2019-05-02T22:36:55.259Z,7.83
2019-05-02T22:39:42.157Z,8.80
2019-05-02T22:42:12.728Z,8.83
2019-05-02T22:44:42.786Z,8.27
2019-05-02T22:47:14.090Z,11.03
2019-05-02T22:49:43.994Z,11.17
2019-05-02T22:52:14.346Z,11.03
2019-05-02T22:54:45.069Z,10.30
2019-05-02T22:57:15.490Z,9.50
2019-05-02T22:59:45.320Z,10.57
2019-05-02T23:02:15.562Z,9.77
2019-05-02T23:04:45.496Z,10.50
2019-05-02T23:07:16.118Z,8.80
2019-05-02T23:09:45.950Z,10.50
2019-05-02T23:12:15.929Z,9.47
2019-05-02T23:14:45.780Z,10.63
2019-05-02T23:17:15.654Z,9.77
2019-05-02T23:19:45.491Z,10.67
2019-05-02T23:22:16.126Z,9.67
2019-05-02T23:25:03.679Z,9.50
2019-05-02T23:27:42.408Z,10.37
2019-05-02T23:30:14.474Z,10.73
2019-05-02T23:32:44.350Z,10.90
2019-05-02T23:35:14.257Z,9.83
2019-05-02T23:37:44.027Z,10.30
2019-05-02T23:40:14.658Z,10.67
2019-05-02T23:42:44.433Z,11.07
2019-05-02T23:45:14.290Z,10.23
2019-05-02T23:47:44.089Z,10.93
2019-05-02T23:50:14.000Z,10.50
2019-05-02T23:52:43.825Z,11.03
2019-05-02T23:55:14.713Z,9.43
2019-05-02T23:57:44.566Z,9.83
